sensor_id;sensor_type;location;lat;lon;timestamp;pressure;altitude;pressure_sealevel;temperature;humidity
11053;BME280;55230;42.602;23.470;2023-05-07T00:02:23;93702.25;;;10.10;98.98
11053;BME280;55230;42.602;23.470;2023-05-07T00:04:50;93676.72;;;9.68;98.70
11053;BME280;55230;42.602;23.470;2023-05-07T00:07:17;93692.03;;;9.93;99.44
11053;BME280;55230;42.602;23.470;2023-05-07T00:09:44;93667.34;;;9.73;99.78
11053;BME280;55230;42.602;23.470;2023-05-07T00:12:11;93740.66;;;10.23;100.00
11053;BME280;55230;42.602;23.470;2023-05-07T00:14:37;93686.44;;;9.87;99.84
11053;BME280;55230;42.602;23.470;2023-05-07T00:17:04;93699.63;;;9.85;100.00
11053;BME280;55230;42.602;23.470;2023-05-07T00:19:32;93737.59;;;10.12;100.00
11053;BME280;55230;42.602;23.470;2023-05-07T00:21:59;93748.44;;;10.21;100.00
11053;BME280;55230;42.602;23.470;2023-05-07T00:24:26;93763.09;;;10.20;100.00
11053;BME280;55230;42.602;23.470;2023-05-07T00:26:53;93700.09;;;9.71;100.00
11053;BME280;55230;42.602;23.470;2023-05-07T00:29:19;93756.00;;;10.14;100.00
11053;BME280;55230;42.602;23.470;2023-05-07T00:31:46;93726.63;;;9.94;100.00
11053;BME280;55230;42.602;23.470;2023-05-07T00:34:13;93648.50;;;9.39;100.00
11053;BME280;55230;42.602;23.470;2023-05-07T00:36:41;93721.56;;;9.62;100.00
11053;BME280;55230;42.602;23.470;2023-05-07T00:39:08;93381.72;;;7.19;100.00
11053;BME280;55230;42.602;23.470;2023-05-07T00:41:34;93762.75;;;9.72;100.00
11053;BME280;55230;42.602;23.470;2023-05-07T00:44:01;93296.84;;;6.75;100.00
11053;BME280;55230;42.602;23.470;2023-05-07T00:46:28;93774.38;;;9.94;100.00
11053;BME280;55230;42.602;23.470;2023-05-07T00:48:57;93763.59;;;9.94;100.00
11053;BME280;55230;42.602;23.470;2023-05-07T00:51:25;93603.31;;;8.49;100.00
11053;BME280;55230;42.602;23.470;2023-05-07T00:53:54;93739.44;;;9.56;100.00
11053;BME280;55230;42.602;23.470;2023-05-07T00:56:21;93766.53;;;9.74;100.00
11053;BME280;55230;42.602;23.470;2023-05-07T00:58:48;93770.44;;;9.73;100.00
11053;BME280;55230;42.602;23.470;2023-05-07T01:01:15;93617.41;;;8.53;100.00
11053;BME280;55230;42.602;23.470;2023-05-07T01:03:42;93768.09;;;9.63;100.00
11053;BME280;55230;42.602;23.470;2023-05-07T01:06:10;93769.13;;;9.65;100.00
11053;BME280;55230;42.602;23.470;2023-05-07T01:08:38;93755.34;;;9.63;100.00
11053;BME280;55230;42.602;23.470;2023-05-07T01:11:08;93597.19;;;8.61;100.00
11053;BME280;55230;42.602;23.470;2023-05-07T01:13:35;93734.78;;;10.03;100.00
11053;BME280;55230;42.602;23.470;2023-05-07T01:16:03;93736.13;;;10.20;100.00
11053;BME280;55230;42.602;23.470;2023-05-07T01:18:30;93731.47;;;10.33;100.00
11053;BME280;55230;42.602;23.470;2023-05-07T01:20:58;93746.69;;;10.49;100.00
11053;BME280;55230;42.602;23.470;2023-05-07T01:23:27;93715.22;;;10.24;100.00
11053;BME280;55230;42.602;23.470;2023-05-07T01:25:54;93744.66;;;10.62;100.00
11053;BME280;55230;42.602;23.470;2023-05-07T01:28:21;93743.47;;;10.63;100.00
11053;BME280;55230;42.602;23.470;2023-05-07T01:30:52;93661.72;;;10.01;100.00
11053;BME280;55230;42.602;23.470;2023-05-07T01:33:21;93739.28;;;10.62;100.00
11053;BME280;55230;42.602;23.470;2023-05-07T01:35:52;93720.69;;;10.33;100.00
11053;BME280;55230;42.602;23.470;2023-05-07T01:38:21;93676.88;;;10.08;100.00
11053;BME280;55230;42.602;23.470;2023-05-07T01:40:50;93743.00;;;10.56;100.00
11053;BME280;55230;42.602;23.470;2023-05-07T01:43:17;93602.84;;;9.69;100.00
11053;BME280;55230;42.602;23.470;2023-05-07T01:45:44;93613.69;;;9.78;100.00
11053;BME280;55230;42.602;23.470;2023-05-07T01:48:12;93733.34;;;10.45;100.00
11053;BME280;55230;42.602;23.470;2023-05-07T01:50:41;93729.44;;;10.46;100.00
11053;BME280;55230;42.602;23.470;2023-05-07T01:53:09;93636.97;;;9.72;100.00
11053;BME280;55230;42.602;23.470;2023-05-07T01:55:35;93596.31;;;9.36;100.00
11053;BME280;55230;42.602;23.470;2023-05-07T01:58:04;93496.69;;;8.59;100.00
11053;BME280;55230;42.602;23.470;2023-05-07T02:00:31;93521.78;;;8.90;100.00
11053;BME280;55230;42.602;23.470;2023-05-07T02:02:58;93231.38;;;6.88;100.00
11053;BME280;55230;42.602;23.470;2023-05-07T02:05:24;93713.66;;;10.14;100.00
11053;BME280;55230;42.602;23.470;2023-05-07T02:07:51;93707.50;;;10.14;100.00
11053;BME280;55230;42.602;23.470;2023-05-07T02:10:18;93713.00;;;10.10;100.00
11053;BME280;55230;42.602;23.470;2023-05-07T02:12:45;93693.94;;;10.05;100.00
11053;BME280;55230;42.602;23.470;2023-05-07T02:15:13;93694.16;;;9.98;100.00
11053;BME280;55230;42.602;23.470;2023-05-07T02:17:57;93695.94;;;9.92;100.00
11053;BME280;55230;42.602;23.470;2023-05-07T02:20:25;93686.78;;;9.89;100.00
11053;BME280;55230;42.602;23.470;2023-05-07T02:22:52;93592.91;;;9.23;100.00
11053;BME280;55230;42.602;23.470;2023-05-07T02:25:19;93584.75;;;9.14;100.00
11053;BME280;55230;42.602;23.470;2023-05-07T02:27:45;93591.63;;;9.15;100.00
11053;BME280;55230;42.602;23.470;2023-05-07T02:30:14;93689.38;;;9.80;100.00
11053;BME280;55230;42.602;23.470;2023-05-07T02:32:41;93693.28;;;9.79;100.00
11053;BME280;55230;42.602;23.470;2023-05-07T02:35:08;93617.41;;;9.25;100.00
11053;BME280;55230;42.602;23.470;2023-05-07T02:37:35;93680.38;;;9.74;100.00
11053;BME280;55230;42.602;23.470;2023-05-07T02:40:01;93679.00;;;9.70;100.00
11053;BME280;55230;42.602;23.470;2023-05-07T02:42:29;93684.50;;;9.66;100.00
11053;BME280;55230;42.602;23.470;2023-05-07T02:44:56;93608.44;;;8.94;100.00
11053;BME280;55230;42.602;23.470;2023-05-07T02:47:24;93693.75;;;9.65;100.00
11053;BME280;55230;42.602;23.470;2023-05-07T02:49:52;93696.88;;;9.64;100.00
11053;BME280;55230;42.602;23.470;2023-05-07T02:52:19;93655.72;;;9.29;100.00
11053;BME280;55230;42.602;23.470;2023-05-07T02:54:45;93622.75;;;9.03;100.00
11053;BME280;55230;42.602;23.470;2023-05-07T02:57:12;93703.88;;;9.61;100.00
11053;BME280;55230;42.602;23.470;2023-05-07T02:59:39;93696.88;;;9.64;100.00
11053;BME280;55230;42.602;23.470;2023-05-07T03:02:06;93699.78;;;9.69;100.00
11053;BME280;55230;42.602;23.470;2023-05-07T03:04:34;93646.78;;;9.32;100.00
11053;BME280;55230;42.602;23.470;2023-05-07T03:07:00;93714.34;;;9.59;100.00
11053;BME280;55230;42.602;23.470;2023-05-07T03:09:27;93601.69;;;8.89;100.00
11053;BME280;55230;42.602;23.470;2023-05-07T03:11:54;93713.16;;;9.60;100.00
11053;BME280;55230;42.602;23.470;2023-05-07T03:14:21;93718.22;;;9.58;100.00
11053;BME280;55230;42.602;23.470;2023-05-07T03:16:49;93356.06;;;7.18;100.00
11053;BME280;55230;42.602;23.470;2023-05-07T03:19:15;93669.84;;;9.20;100.00
11053;BME280;55230;42.602;23.470;2023-05-07T03:21:44;93693.81;;;9.40;100.00
11053;BME280;55230;42.602;23.470;2023-05-07T03:24:10;93726.06;;;9.65;100.00
11053;BME280;55230;42.602;23.470;2023-05-07T03:26:37;93734.47;;;9.67;100.00
11053;BME280;55230;42.602;23.470;2023-05-07T03:29:04;93627.69;;;9.05;100.00
11053;BME280;55230;42.602;23.470;2023-05-07T03:31:30;93698.44;;;9.40;100.00
11053;BME280;55230;42.602;23.470;2023-05-07T03:33:57;93720.22;;;9.79;100.00
11053;BME280;55230;42.602;23.470;2023-05-07T03:36:24;93720.66;;;10.12;100.00
11053;BME280;55230;42.602;23.470;2023-05-07T03:38:53;93216.03;;;6.89;100.00
11053;BME280;55230;42.602;23.470;2023-05-07T03:41:20;93726.69;;;10.37;100.00
11053;BME280;55230;42.602;23.470;2023-05-07T03:43:46;93748.19;;;11.02;100.00
11053;BME280;55230;42.602;23.470;2023-05-07T03:46:13;93606.19;;;10.47;100.00
11053;BME280;55230;42.602;23.470;2023-05-07T03:48:40;93636.50;;;11.00;100.00
11053;BME280;55230;42.602;23.470;2023-05-07T03:51:07;93744.16;;;12.31;100.00
11053;BME280;55230;42.602;23.470;2023-05-07T03:53:33;93747.13;;;12.51;100.00
11053;BME280;55230;42.602;23.470;2023-05-07T03:56:02;93755.50;;;12.99;100.00
11053;BME280;55230;42.602;23.470;2023-05-07T03:58:29;93772.00;;;13.19;99.28
11053;BME280;55230;42.602;23.470;2023-05-07T04:00:55;93687.22;;;13.04;97.85
11053;BME280;55230;42.602;23.470;2023-05-07T04:03:22;93377.47;;;11.18;95.12
11053;BME280;55230;42.602;23.470;2023-05-07T04:05:49;93675.94;;;13.38;92.67
11053;BME280;55230;42.602;23.470;2023-05-07T04:08:15;93657.91;;;13.35;91.11
11053;BME280;55230;42.602;23.470;2023-05-07T04:10:42;93726.06;;;14.13;89.76
11053;BME280;55230;42.602;23.470;2023-05-07T04:13:10;93732.56;;;14.07;89.25
11053;BME280;55230;42.602;23.470;2023-05-07T04:15:37;93791.25;;;14.80;88.07
11053;BME280;55230;42.602;23.470;2023-05-07T04:18:04;93753.34;;;15.15;85.71
11053;BME280;55230;42.602;23.470;2023-05-07T04:20:31;93747.69;;;15.62;81.40
11053;BME280;55230;42.602;23.470;2023-05-07T04:23:01;93693.63;;;15.50;79.36
11053;BME280;55230;42.602;23.470;2023-05-07T04:25:28;93585.34;;;14.44;76.20
11053;BME280;55230;42.602;23.470;2023-05-07T04:27:55;93631.19;;;15.21;75.38
11053;BME280;55230;42.602;23.470;2023-05-07T04:30:23;93796.28;;;16.44;74.05
11053;BME280;55230;42.602;23.470;2023-05-07T04:32:50;93739.41;;;15.71;74.58
11053;BME280;55230;42.602;23.470;2023-05-07T04:35:17;93802.72;;;15.57;77.14
11053;BME280;55230;42.602;23.470;2023-05-07T04:37:43;93743.38;;;13.92;83.48
11053;BME280;55230;42.602;23.470;2023-05-07T04:40:10;93810.78;;;13.34;89.82
11053;BME280;55230;42.602;23.470;2023-05-07T04:42:37;93817.16;;;13.04;93.47
11053;BME280;55230;42.602;23.470;2023-05-07T04:45:05;93801.66;;;12.95;93.98
11053;BME280;55230;42.602;23.470;2023-05-07T04:47:33;93743.50;;;12.91;93.48
11053;BME280;55230;42.602;23.470;2023-05-07T04:50:00;93596.41;;;11.92;91.69
11053;BME280;55230;42.602;23.470;2023-05-07T04:52:27;93806.94;;;13.08;93.40
11053;BME280;55230;42.602;23.470;2023-05-07T04:54:53;93807.50;;;13.12;94.54
11053;BME280;55230;42.602;23.470;2023-05-07T04:57:21;93809.56;;;13.35;94.41
11053;BME280;55230;42.602;23.470;2023-05-07T04:59:47;93631.47;;;12.37;91.22
11053;BME280;55230;42.602;23.470;2023-05-07T05:02:15;93748.28;;;12.96;91.24
11053;BME280;55230;42.602;23.470;2023-05-07T05:04:43;93818.88;;;13.75;90.97
11053;BME280;55230;42.602;23.470;2023-05-07T05:07:10;93781.09;;;13.39;91.21
11053;BME280;55230;42.602;23.470;2023-05-07T05:09:37;93577.44;;;12.28;90.58
11053;BME280;55230;42.602;23.470;2023-05-07T05:12:04;93799.75;;;14.35;89.69
11053;BME280;55230;42.602;23.470;2023-05-07T05:14:32;93772.91;;;13.57;90.75
11053;BME280;55230;42.602;23.470;2023-05-07T05:16:59;93733.38;;;13.09;91.06
11053;BME280;55230;42.602;23.470;2023-05-07T05:19:26;93795.84;;;13.80;90.72
11053;BME280;55230;42.602;23.470;2023-05-07T05:21:54;93719.38;;;13.11;91.69
11053;BME280;55230;42.602;23.470;2023-05-07T05:24:20;93764.81;;;12.98;92.04
11053;BME280;55230;42.602;23.470;2023-05-07T05:26:47;93805.47;;;13.39;93.54
11053;BME280;55230;42.602;23.470;2023-05-07T05:29:14;93648.50;;;12.20;95.58
11053;BME280;55230;42.602;23.470;2023-05-07T05:31:41;93809.22;;;13.51;96.61
11053;BME280;55230;42.602;23.470;2023-05-07T05:34:08;93802.56;;;13.61;95.24
11053;BME280;55230;42.602;23.470;2023-05-07T05:36:34;93816.16;;;13.43;97.19
11053;BME280;55230;42.602;23.470;2023-05-07T05:39:02;93807.84;;;13.55;94.83
11053;BME280;55230;42.602;23.470;2023-05-07T05:41:30;93732.03;;;13.05;95.77
11053;BME280;55230;42.602;23.470;2023-05-07T05:43:56;93804.53;;;13.51;94.79
11053;BME280;55230;42.602;23.470;2023-05-07T05:46:23;93825.59;;;13.56;95.97
11053;BME280;55230;42.602;23.470;2023-05-07T05:48:50;93819.94;;;13.78;92.79
11053;BME280;55230;42.602;23.470;2023-05-07T05:51:16;93805.28;;;13.52;94.03
11053;BME280;55230;42.602;23.470;2023-05-07T05:53:43;93778.06;;;13.46;93.16
11053;BME280;55230;42.602;23.470;2023-05-07T05:56:11;93788.06;;;13.97;92.13
11053;BME280;55230;42.602;23.470;2023-05-07T05:58:38;93813.59;;;13.81;93.10
11053;BME280;55230;42.602;23.470;2023-05-07T06:01:05;93728.53;;;13.13;95.09
11053;BME280;55230;42.602;23.470;2023-05-07T06:03:32;93533.56;;;11.65;96.07
11053;BME280;55230;42.602;23.470;2023-05-07T06:05:58;93760.16;;;13.49;95.69
11053;BME280;55230;42.602;23.470;2023-05-07T06:08:29;93751.44;;;13.45;94.26
11053;BME280;55230;42.602;23.470;2023-05-07T06:10:56;93818.47;;;13.68;94.60
11053;BME280;55230;42.602;23.470;2023-05-07T06:13:24;93752.97;;;13.37;96.00
11053;BME280;55230;42.602;23.470;2023-05-07T06:15:50;93771.22;;;13.27;97.44
11053;BME280;55230;42.602;23.470;2023-05-07T06:18:17;93756.84;;;13.45;97.02
11053;BME280;55230;42.602;23.470;2023-05-07T06:20:44;93754.50;;;13.29;99.35
11053;BME280;55230;42.602;23.470;2023-05-07T06:23:11;93821.94;;;14.01;99.35
11053;BME280;55230;42.602;23.470;2023-05-07T06:25:37;93762.09;;;13.81;95.40
11053;BME280;55230;42.602;23.470;2023-05-07T06:28:05;93848.63;;;14.26;94.08
11053;BME280;55230;42.602;23.470;2023-05-07T06:30:35;93813.34;;;14.03;95.42
11053;BME280;55230;42.602;23.470;2023-05-07T06:33:02;93306.16;;;10.92;94.74
11053;BME280;55230;42.602;23.470;2023-05-07T06:35:29;93755.66;;;14.26;91.74
11053;BME280;55230;42.602;23.470;2023-05-07T06:37:55;93770.88;;;14.47;90.92
11053;BME280;55230;42.602;23.470;2023-05-07T06:40:22;93813.75;;;14.95;93.13
11053;BME280;55230;42.602;23.470;2023-05-07T06:42:49;93807.03;;;14.53;92.88
11053;BME280;55230;42.602;23.470;2023-05-07T06:45:16;93723.63;;;13.68;92.75
11053;BME280;55230;42.602;23.470;2023-05-07T06:47:44;93733.91;;;14.11;94.06
11053;BME280;55230;42.602;23.470;2023-05-07T06:50:11;93550.69;;;12.30;93.21
11053;BME280;55230;42.602;23.470;2023-05-07T06:52:45;93780.47;;;14.33;93.90
11053;BME280;55230;42.602;23.470;2023-05-07T06:55:12;93542.19;;;13.12;92.55
11053;BME280;55230;42.602;23.470;2023-05-07T06:57:38;93802.78;;;14.90;92.44
11053;BME280;55230;42.602;23.470;2023-05-07T07:00:06;93772.25;;;14.80;93.06
11053;BME280;55230;42.602;23.470;2023-05-07T07:02:34;93800.38;;;15.21;92.42
11053;BME280;55230;42.602;23.470;2023-05-07T07:05:02;93334.31;;;12.39;88.91
11053;BME280;55230;42.602;23.470;2023-05-07T07:07:29;93721.13;;;14.79;88.16
11053;BME280;55230;42.602;23.470;2023-05-07T07:09:56;93693.31;;;14.55;90.04
11053;BME280;55230;42.602;23.470;2023-05-07T07:12:22;93798.56;;;15.33;89.55
11053;BME280;55230;42.602;23.470;2023-05-07T07:14:51;93803.72;;;15.31;89.39
11053;BME280;55230;42.602;23.470;2023-05-07T07:17:18;93702.69;;;14.68;90.21
11053;BME280;55230;42.602;23.470;2023-05-07T07:19:44;93801.28;;;15.33;89.33
11053;BME280;55230;42.602;23.470;2023-05-07T07:22:12;93427.06;;;13.02;91.22
11053;BME280;55230;42.602;23.470;2023-05-07T07:24:39;93736.59;;;15.80;87.94
11053;BME280;55230;42.602;23.470;2023-05-07T07:27:06;93714.00;;;15.25;87.90
11053;BME280;55230;42.602;23.470;2023-05-07T07:29:33;93789.31;;;15.39;88.05
11053;BME280;55230;42.602;23.470;2023-05-07T07:32:00;93791.59;;;15.90;87.36
11053;BME280;55230;42.602;23.470;2023-05-07T07:34:26;93735.34;;;15.47;88.22
11053;BME280;55230;42.602;23.470;2023-05-07T07:36:53;93408.59;;;12.76;86.75
11053;BME280;55230;42.602;23.470;2023-05-07T07:39:21;93794.47;;;16.01;86.62
11053;BME280;55230;42.602;23.470;2023-05-07T07:41:48;93610.28;;;14.92;85.26
11053;BME280;55230;42.602;23.470;2023-05-07T07:44:15;93795.72;;;16.20;86.12
11053;BME280;55230;42.602;23.470;2023-05-07T07:46:42;93810.00;;;16.15;86.60
11053;BME280;55230;42.602;23.470;2023-05-07T07:49:09;93798.00;;;16.62;86.22
11053;BME280;55230;42.602;23.470;2023-05-07T07:51:36;93743.41;;;16.31;85.64
11053;BME280;55230;42.602;23.470;2023-05-07T07:54:03;93792.78;;;16.58;83.27
11053;BME280;55230;42.602;23.470;2023-05-07T07:56:31;93797.94;;;16.56;87.99
11053;BME280;55230;42.602;23.470;2023-05-07T07:58:58;93754.63;;;16.18;83.96
11053;BME280;55230;42.602;23.470;2023-05-07T08:01:25;93768.03;;;16.42;84.30
11053;BME280;55230;42.602;23.470;2023-05-07T08:03:52;93813.50;;;16.96;83.49
11053;BME280;55230;42.602;23.470;2023-05-07T08:06:19;93814.38;;;16.87;82.59
11053;BME280;55230;42.602;23.470;2023-05-07T08:08:46;93761.81;;;16.41;83.30
11053;BME280;55230;42.602;23.470;2023-05-07T08:11:12;93713.03;;;16.38;80.64
11053;BME280;55230;42.602;23.470;2023-05-07T08:13:41;93582.69;;;15.68;83.33
11053;BME280;55230;42.602;23.470;2023-05-07T08:16:07;93761.56;;;17.62;82.48
11053;BME280;55230;42.602;23.470;2023-05-07T08:18:34;93762.94;;;18.25;78.23
11053;BME280;55230;42.602;23.470;2023-05-07T08:21:01;93733.28;;;17.96;75.65
11053;BME280;55230;42.602;23.470;2023-05-07T08:23:28;93803.19;;;17.93;76.67
11053;BME280;55230;42.602;23.470;2023-05-07T08:25:55;93737.00;;;17.30;78.58
11053;BME280;55230;42.602;23.470;2023-05-07T08:28:21;93800.69;;;17.90;78.58
11053;BME280;55230;42.602;23.470;2023-05-07T08:30:51;93563.97;;;16.47;78.92
11053;BME280;55230;42.602;23.470;2023-05-07T08:33:18;93631.94;;;16.67;76.60
11053;BME280;55230;42.602;23.470;2023-05-07T08:35:45;93765.47;;;17.50;77.80
11053;BME280;55230;42.602;23.470;2023-05-07T08:38:12;93801.66;;;17.87;76.67
11053;BME280;55230;42.602;23.470;2023-05-07T08:40:39;93525.53;;;16.14;76.54
11053;BME280;55230;42.602;23.470;2023-05-07T08:43:06;93766.16;;;18.23;73.85
11053;BME280;55230;42.602;23.470;2023-05-07T08:45:34;93801.03;;;18.03;73.43
11053;BME280;55230;42.602;23.470;2023-05-07T08:48:06;93736.53;;;18.00;74.86
11053;BME280;55230;42.602;23.470;2023-05-07T08:50:35;93799.38;;;18.64;70.67
11053;BME280;55230;42.602;23.470;2023-05-07T08:53:03;93785.59;;;18.95;65.50
11053;BME280;55230;42.602;23.470;2023-05-07T08:55:29;93747.47;;;18.53;65.62
11053;BME280;55230;42.602;23.470;2023-05-07T08:57:56;93758.03;;;19.21;67.58
11053;BME280;55230;42.602;23.470;2023-05-07T09:00:23;93614.91;;;18.80;63.23
11053;BME280;55230;42.602;23.470;2023-05-07T09:02:50;93798.88;;;19.91;62.90
11053;BME280;55230;42.602;23.470;2023-05-07T09:05:18;93756.81;;;19.16;61.53
11053;BME280;55230;42.602;23.470;2023-05-07T09:07:45;93785.44;;;19.48;55.55
11053;BME280;55230;42.602;23.470;2023-05-07T09:10:13;93778.97;;;20.07;56.16
11053;BME280;55230;42.602;23.470;2023-05-07T09:12:40;93772.03;;;19.56;52.25
11053;BME280;55230;42.602;23.470;2023-05-07T09:15:08;93586.56;;;18.55;46.47
11053;BME280;55230;42.602;23.470;2023-05-07T09:17:34;93767.53;;;19.86;44.75
11053;BME280;55230;42.602;23.470;2023-05-07T09:20:06;93572.84;;;18.33;43.10
11053;BME280;55230;42.602;23.470;2023-05-07T09:22:36;93774.69;;;19.23;43.24
11053;BME280;55230;42.602;23.470;2023-05-07T09:25:04;93718.47;;;18.72;48.14
11053;BME280;55230;42.602;23.470;2023-05-07T09:27:31;93733.25;;;19.35;49.19
11053;BME280;55230;42.602;23.470;2023-05-07T09:29:58;93718.06;;;19.45;48.50
11053;BME280;55230;42.602;23.470;2023-05-07T09:32:25;93739.63;;;19.99;46.53
11053;BME280;55230;42.602;23.470;2023-05-07T09:34:52;93746.13;;;20.01;46.43
11053;BME280;55230;42.602;23.470;2023-05-07T09:37:19;93712.97;;;20.21;46.96
11053;BME280;55230;42.602;23.470;2023-05-07T09:39:49;93743.84;;;20.22;44.78
11053;BME280;55230;42.602;23.470;2023-05-07T09:42:23;93328.59;;;17.01;47.93
11053;BME280;55230;42.602;23.470;2023-05-07T09:44:50;93744.81;;;20.30;47.35
11053;BME280;55230;42.602;23.470;2023-05-07T09:47:19;93734.41;;;20.12;44.43
11053;BME280;55230;42.602;23.470;2023-05-07T09:49:48;93695.56;;;20.08;43.40
11053;BME280;55230;42.602;23.470;2023-05-07T09:52:15;93736.66;;;20.76;43.43
11053;BME280;55230;42.602;23.470;2023-05-07T09:54:43;93732.81;;;20.44;42.71
11053;BME280;55230;42.602;23.470;2023-05-07T09:57:12;93713.22;;;20.29;42.64
11053;BME280;55230;42.602;23.470;2023-05-07T09:59:42;93734.59;;;20.30;43.41
11053;BME280;55230;42.602;23.470;2023-05-07T10:02:09;93678.19;;;19.89;42.00
11053;BME280;55230;42.602;23.470;2023-05-07T10:04:37;93723.91;;;20.84;41.16
11053;BME280;55230;42.602;23.470;2023-05-07T10:07:05;93677.13;;;20.19;41.25
11053;BME280;55230;42.602;23.470;2023-05-07T10:09:33;93659.72;;;20.17;40.81
11053;BME280;55230;42.602;23.470;2023-05-07T10:12:04;93731.50;;;21.13;41.12
11053;BME280;55230;42.602;23.470;2023-05-07T10:14:33;93683.03;;;21.21;40.78
11053;BME280;55230;42.602;23.470;2023-05-07T10:17:01;93667.69;;;21.66;40.92
11053;BME280;55230;42.602;23.470;2023-05-07T10:19:29;93775.53;;;21.61;39.04
11053;BME280;55230;42.602;23.470;2023-05-07T10:22:01;93710.66;;;20.88;38.69
11053;BME280;55230;42.602;23.470;2023-05-07T10:24:32;93672.72;;;20.00;38.84
11053;BME280;55230;42.602;23.470;2023-05-07T10:27:00;93628.94;;;19.89;42.66
11053;BME280;55230;42.602;23.470;2023-05-07T10:29:36;93711.22;;;20.81;39.37
11053;BME280;55230;42.602;23.470;2023-05-07T10:32:18;93705.91;;;20.94;39.11
11053;BME280;55230;42.602;23.470;2023-05-07T10:34:48;93648.19;;;20.35;39.40
11053;BME280;55230;42.602;23.470;2023-05-07T10:37:17;93699.91;;;20.55;37.42
11053;BME280;55230;42.602;23.470;2023-05-07T10:39:44;93695.06;;;20.78;37.28
11053;BME280;55230;42.602;23.470;2023-05-07T10:42:12;93693.66;;;20.60;37.20
11053;BME280;55230;42.602;23.470;2023-05-07T10:44:41;93684.72;;;20.48;38.76
11053;BME280;55230;42.602;23.470;2023-05-07T10:47:09;93689.06;;;20.79;38.35
11053;BME280;55230;42.602;23.470;2023-05-07T10:49:36;93616.03;;;20.76;37.42
11053;BME280;55230;42.602;23.470;2023-05-07T10:52:14;93559.81;;;19.83;38.49
11053;BME280;55230;42.602;23.470;2023-05-07T10:54:42;93680.72;;;20.55;39.09
11053;BME280;55230;42.602;23.470;2023-05-07T10:57:34;93694.63;;;20.62;38.62
11053;BME280;55230;42.602;23.470;2023-05-07T11:00:41;93623.63;;;20.18;38.49
11053;BME280;55230;42.602;23.470;2023-05-07T11:03:09;93570.94;;;19.96;37.83
11053;BME280;55230;42.602;23.470;2023-05-07T11:05:36;93658.38;;;20.86;37.66
11053;BME280;55230;42.602;23.470;2023-05-07T11:08:04;93686.09;;;21.12;39.10
11053;BME280;55230;42.602;23.470;2023-05-07T11:10:51;93652.34;;;20.93;38.79
11053;BME280;55230;42.602;23.470;2023-05-07T11:13:18;93646.91;;;20.82;38.51
11053;BME280;55230;42.602;23.470;2023-05-07T11:15:47;93591.25;;;20.63;39.36
11053;BME280;55230;42.602;23.470;2023-05-07T11:18:16;93684.44;;;21.33;37.36
11053;BME280;55230;42.602;23.470;2023-05-07T11:20:48;93678.38;;;21.11;37.83
11053;BME280;55230;42.602;23.470;2023-05-07T11:23:56;93673.94;;;21.37;38.54
11053;BME280;55230;42.602;23.470;2023-05-07T11:26:24;93609.72;;;20.57;38.70
11053;BME280;55230;42.602;23.470;2023-05-07T11:28:52;93466.25;;;19.27;38.67
11053;BME280;55230;42.602;23.470;2023-05-07T11:31:26;93691.00;;;21.25;38.31
11053;BME280;55230;42.602;23.470;2023-05-07T11:33:54;93578.25;;;20.69;37.82
11053;BME280;55230;42.602;23.470;2023-05-07T11:36:23;93666.19;;;21.41;37.61
11053;BME280;55230;42.602;23.470;2023-05-07T11:38:51;93695.38;;;21.68;38.49
11053;BME280;55230;42.602;23.470;2023-05-07T11:41:18;93512.91;;;20.43;37.48
11053;BME280;55230;42.602;23.470;2023-05-07T11:43:56;93677.19;;;21.65;37.11
11053;BME280;55230;42.602;23.470;2023-05-07T11:46:26;93594.09;;;20.46;37.60
11053;BME280;55230;42.602;23.470;2023-05-07T11:48:53;93665.97;;;21.39;41.87
11053;BME280;55230;42.602;23.470;2023-05-07T11:51:20;93665.00;;;21.61;38.25
11053;BME280;55230;42.602;23.470;2023-05-07T11:53:48;93674.16;;;21.45;37.40
11053;BME280;55230;42.602;23.470;2023-05-07T11:56:17;93629.84;;;21.59;38.74
11053;BME280;55230;42.602;23.470;2023-05-07T11:58:45;93667.13;;;22.22;36.17
11053;BME280;55230;42.602;23.470;2023-05-07T12:01:13;93667.53;;;22.31;37.32
11053;BME280;55230;42.602;23.470;2023-05-07T12:03:42;93659.16;;;22.00;37.49
11053;BME280;55230;42.602;23.470;2023-05-07T12:06:11;93597.41;;;21.34;37.49
11053;BME280;55230;42.602;23.470;2023-05-07T12:08:39;93651.75;;;22.13;37.87
11053;BME280;55230;42.602;23.470;2023-05-07T12:11:12;93569.47;;;21.59;37.13
11053;BME280;55230;42.602;23.470;2023-05-07T12:13:41;93404.81;;;20.74;37.52
11053;BME280;55230;42.602;23.470;2023-05-07T12:16:08;93650.28;;;21.64;38.51
11053;BME280;55230;42.602;23.470;2023-05-07T12:18:36;93646.47;;;21.43;38.64
11053;BME280;55230;42.602;23.470;2023-05-07T12:21:06;93539.75;;;20.86;38.90
11053;BME280;55230;42.602;23.470;2023-05-07T12:23:34;93631.66;;;21.27;38.70
11053;BME280;55230;42.602;23.470;2023-05-07T12:26:01;93627.06;;;21.35;39.96
11053;BME280;55230;42.602;23.470;2023-05-07T12:28:28;93634.44;;;21.22;38.31
11053;BME280;55230;42.602;23.470;2023-05-07T12:30:56;93639.88;;;20.92;38.56
11053;BME280;55230;42.602;23.470;2023-05-07T12:33:26;93496.94;;;20.47;38.30
11053;BME280;55230;42.602;23.470;2023-05-07T12:35:54;93582.28;;;21.27;40.38
11053;BME280;55230;42.602;23.470;2023-05-07T12:38:23;93536.06;;;21.07;38.24
11053;BME280;55230;42.602;23.470;2023-05-07T12:40:52;93628.72;;;21.98;39.98
11053;BME280;55230;42.602;23.470;2023-05-07T12:43:20;93547.97;;;21.63;38.69
11053;BME280;55230;42.602;23.470;2023-05-07T12:45:49;93614.00;;;22.38;38.06
11053;BME280;55230;42.602;23.470;2023-05-07T12:48:16;93639.97;;;22.37;36.50
11053;BME280;55230;42.602;23.470;2023-05-07T12:50:43;93614.28;;;22.71;36.75
11053;BME280;55230;42.602;23.470;2023-05-07T12:53:11;93580.59;;;22.84;36.89
11053;BME280;55230;42.602;23.470;2023-05-07T12:55:44;93551.00;;;22.40;36.39